createdAt,value
2022-11-12T00:01:02.731Z,22.63
2022-11-12T00:03:36.732Z,19.42
2022-11-12T00:06:03.243Z,22.42
2022-11-12T00:08:30.052Z,23.00
2022-11-12T00:10:56.653Z,23.40
2022-11-12T00:13:23.123Z,19.63
2022-11-12T00:15:49.527Z,23.52
2022-11-12T00:18:15.922Z,23.58
2022-11-12T00:20:42.444Z,23.58
2022-11-12T00:23:08.814Z,25.67
2022-11-12T00:25:35.328Z,25.58
2022-11-12T00:28:03.556Z,22.83
2022-11-12T00:30:30.468Z,26.27
2022-11-12T00:32:56.905Z,25.40
2022-11-12T00:35:23.270Z,24.92
2022-11-12T00:37:54.795Z,22.65
2022-11-12T00:40:21.463Z,24.65
2022-11-12T00:42:47.863Z,23.70
2022-11-12T00:45:14.249Z,22.90
2022-11-12T00:47:40.604Z,24.45
2022-11-12T00:50:07.627Z,23.98
2022-11-12T00:52:34.006Z,25.45
2022-11-12T00:55:00.364Z,23.65
2022-11-12T00:57:26.763Z,22.67
2022-11-12T00:59:53.128Z,25.38
2022-11-12T01:02:20.429Z,21.77
2022-11-12T01:04:46.790Z,20.30
2022-11-12T01:07:37.639Z,21.55
2022-11-12T01:10:04.918Z,21.48
2022-11-12T01:12:31.935Z,19.92
2022-11-12T01:14:58.346Z,18.67
2022-11-12T01:17:24.713Z,20.65
2022-11-12T01:19:51.085Z,20.83
2022-11-12T01:22:17.660Z,21.63
2022-11-12T01:24:44.099Z,18.45
2022-11-12T01:27:10.460Z,20.65
2022-11-12T01:29:36.851Z,18.77
2022-11-12T01:32:03.231Z,19.15
2022-11-12T01:34:29.684Z,23.00
2022-11-12T01:36:56.121Z,22.27
2022-11-12T01:39:22.591Z,20.42
2022-11-12T01:41:48.952Z,21.40
2022-11-12T01:44:19.642Z,18.30
2022-11-12T01:47:00.708Z,20.58
2022-11-12T01:49:32.452Z,20.73
2022-11-12T01:52:02.202Z,22.35
2022-11-12T01:54:29.156Z,19.50
2022-11-12T01:56:57.270Z,24.17
2022-11-12T01:59:29.675Z,19.33
2022-11-12T02:01:56.159Z,21.00
2022-11-12T02:04:23.024Z,22.10
2022-11-12T02:06:51.056Z,22.77
2022-11-12T02:09:18.451Z,20.98
2022-11-12T02:11:48.215Z,19.95
2022-11-12T02:14:14.775Z,24.85
2022-11-12T02:16:45.028Z,26.08
2022-11-12T02:19:15.378Z,21.27
2022-11-12T02:21:42.224Z,21.05
2022-11-12T02:24:11.538Z,23.83
2022-11-12T02:26:42.283Z,22.98
2022-11-12T02:29:08.671Z,22.70
2022-11-12T02:31:35.406Z,24.92
2022-11-12T02:34:01.788Z,24.25
2022-11-12T02:36:28.955Z,21.60
2022-11-12T02:38:55.351Z,21.50
2022-11-12T02:41:21.761Z,21.17
2022-11-12T02:43:48.129Z,18.20
2022-11-12T02:46:14.871Z,20.20
2022-11-12T02:48:41.255Z,20.50
2022-11-12T02:51:07.646Z,22.30
2022-11-12T02:53:34.243Z,22.98
2022-11-12T02:56:01.153Z,21.70
2022-11-12T02:58:28.661Z,21.05
2022-11-12T03:00:57.141Z,25.35
2022-11-12T03:03:23.666Z,21.58
2022-11-12T03:05:58.133Z,21.85
2022-11-12T03:08:25.503Z,20.48
2022-11-12T03:10:52.883Z,22.20
2022-11-12T03:13:19.874Z,24.58
2022-11-12T03:15:46.328Z,25.65
2022-11-12T03:18:12.782Z,23.02
2022-11-12T03:20:39.161Z,24.30
2022-11-12T03:23:08.058Z,23.60
2022-11-12T03:25:35.028Z,21.98
2022-11-12T03:28:06.862Z,26.38
2022-11-12T03:30:35.360Z,24.02
2022-11-12T03:33:01.927Z,26.80
2022-11-12T03:35:28.498Z,24.15
2022-11-12T03:37:54.876Z,24.48
2022-11-12T03:40:21.441Z,22.67
2022-11-12T03:42:48.927Z,23.52
2022-11-12T03:45:19.514Z,23.33
2022-11-12T03:47:47.821Z,22.73
2022-11-12T03:50:15.181Z,23.02
2022-11-12T03:52:47.025Z,23.40
2022-11-12T03:55:14.719Z,22.00
2022-11-12T03:57:41.104Z,20.48
2022-11-12T04:00:09.050Z,23.65
2022-11-12T04:02:35.402Z,24.67
2022-11-12T04:05:20.744Z,25.40
2022-11-12T04:08:16.095Z,26.08
2022-11-12T04:10:42.512Z,22.63
2022-11-12T04:13:27.390Z,24.90
2022-11-12T04:16:20.943Z,24.80
2022-11-12T04:19:08.310Z,25.42
2022-11-12T04:21:55.896Z,24.02
2022-11-12T04:25:08.346Z,22.75
2022-11-12T04:27:35.157Z,23.85
2022-11-12T04:30:16.801Z,25.77
2022-11-12T04:32:56.769Z,29.08
2022-11-12T04:35:24.731Z,25.15
2022-11-12T04:37:51.369Z,26.42
2022-11-12T04:40:37.563Z,26.35
2022-11-12T04:43:24.248Z,25.63
2022-11-12T04:45:54.832Z,25.85
2022-11-12T04:48:22.771Z,27.50
2022-11-12T04:51:25.511Z,28.17
2022-11-12T04:53:52.087Z,26.90
2022-11-12T04:56:18.483Z,31.40
2022-11-12T04:58:44.862Z,31.65
2022-11-12T05:01:11.252Z,33.58
2022-11-12T05:03:37.633Z,34.03
2022-11-12T05:06:25.357Z,31.23
2022-11-12T05:08:51.730Z,32.53
2022-11-12T05:11:18.138Z,25.90
2022-11-12T05:13:44.493Z,25.88
2022-11-12T05:16:10.859Z,26.60
2022-11-12T05:18:37.430Z,29.98
2022-11-12T05:21:23.924Z,28.58
2022-11-12T05:23:50.287Z,33.03
2022-11-12T05:26:16.673Z,29.67
2022-11-12T05:28:43.062Z,26.75
2022-11-12T05:31:09.430Z,31.58
2022-11-12T05:33:35.799Z,26.45
2022-11-12T05:36:02.159Z,35.38
2022-11-12T05:38:29.000Z,31.55
2022-11-12T05:40:55.607Z,25.45
2022-11-12T05:43:21.961Z,31.90
2022-11-12T05:45:48.306Z,27.65
2022-11-12T05:48:14.684Z,28.08
2022-11-12T05:51:06.307Z,30.52
2022-11-12T05:53:27.441Z,27.05
2022-11-12T05:55:53.792Z,28.40
2022-11-12T05:58:20.210Z,26.35
2022-11-12T06:00:47.839Z,25.90
2022-11-12T06:03:14.200Z,26.92
2022-11-12T06:05:40.560Z,24.73
2022-11-12T06:08:07.259Z,21.52
2022-11-12T06:10:33.826Z,24.17
2022-11-12T06:13:00.369Z,23.50
2022-11-12T06:15:27.024Z,23.98
2022-11-12T06:17:54.199Z,22.60
2022-11-12T06:20:21.767Z,21.17
2022-11-12T06:22:48.688Z,25.05
2022-11-12T06:25:15.084Z,23.15
2022-11-12T06:27:41.473Z,22.75
2022-11-12T06:30:08.518Z,22.45
2022-11-12T06:32:34.950Z,22.95
2022-11-12T06:35:01.379Z,23.98
2022-11-12T06:37:27.764Z,19.58
2022-11-12T06:39:54.136Z,21.17
2022-11-12T06:42:20.515Z,21.38
2022-11-12T06:44:46.898Z,23.58
2022-11-12T06:47:13.575Z,22.40
2022-11-12T06:49:41.463Z,24.33
2022-11-12T06:52:10.045Z,23.08
2022-11-12T06:54:40.055Z,23.75
2022-11-12T06:57:06.523Z,22.80
2022-11-12T06:59:32.893Z,19.90
2022-11-12T07:01:59.395Z,24.80
2022-11-12T07:04:25.912Z,24.88
2022-11-12T07:06:52.332Z,22.83
2022-11-12T07:09:18.751Z,21.85
2022-11-12T07:11:45.123Z,24.73
2022-11-12T07:14:11.496Z,21.17
2022-11-12T07:16:37.917Z,23.60
2022-11-12T07:19:04.292Z,21.02
2022-11-12T07:21:30.660Z,21.38
2022-11-12T07:23:57.024Z,21.85
2022-11-12T07:26:25.572Z,22.83
2022-11-12T07:28:52.449Z,26.60
2022-11-12T07:31:20.036Z,21.27
2022-11-12T07:33:48.781Z,27.02
2022-11-12T07:36:17.420Z,23.88
2022-11-12T07:38:44.423Z,24.45
2022-11-12T07:41:15.430Z,20.23
2022-11-12T07:43:44.662Z,21.33
2022-11-12T07:46:15.741Z,24.10
2022-11-12T07:48:42.748Z,21.45
2022-11-12T07:51:13.880Z,22.35
2022-11-12T07:53:41.218Z,23.80
2022-11-12T07:56:07.854Z,24.92
2022-11-12T07:58:34.607Z,22.40
2022-11-12T08:01:11.098Z,26.42
2022-11-12T08:03:37.610Z,21.85
2022-11-12T08:06:04.479Z,20.33
2022-11-12T08:08:30.846Z,21.02
2022-11-12T08:10:58.373Z,25.65
2022-11-12T08:13:24.994Z,22.63
2022-11-12T08:15:52.523Z,22.90
2022-11-12T08:18:18.987Z,25.38
2022-11-12T08:20:45.340Z,25.40
2022-11-12T08:23:11.706Z,23.38
2022-11-12T08:25:38.071Z,25.02
2022-11-12T08:28:04.673Z,23.42
2022-11-12T08:30:31.023Z,26.92
2022-11-12T08:32:58.886Z,23.73
2022-11-12T08:35:29.317Z,27.27
2022-11-12T08:38:10.465Z,28.33
2022-11-12T08:40:37.179Z,27.77
2022-11-12T08:43:06.288Z,25.83
2022-11-12T08:48:02.460Z,23.83
2022-11-12T08:50:29.447Z,25.02
2022-11-12T08:53:00.987Z,24.05
2022-11-12T08:55:28.172Z,22.20
2022-11-12T08:57:54.818Z,18.85
2022-11-12T09:00:21.332Z,18.20
2022-11-12T09:02:47.696Z,17.90
2022-11-12T09:05:14.055Z,17.13
2022-11-12T09:07:49.826Z,15.38
2022-11-12T09:10:17.195Z,16.05
2022-11-12T09:12:43.579Z,17.40
2022-11-12T09:15:36.432Z,18.42
2022-11-12T09:18:01.767Z,17.83
2022-11-12T09:20:29.277Z,17.20
2022-11-12T09:23:05.142Z,16.67
2022-11-12T09:25:31.536Z,14.70
2022-11-12T09:28:06.315Z,16.98
2022-11-12T09:30:32.689Z,14.63
2022-11-12T09:32:59.104Z,14.57
2022-11-12T09:35:25.488Z,16.90
2022-11-12T09:37:51.876Z,15.05
2022-11-12T09:40:19.189Z,14.60
2022-11-12T09:42:48.063Z,16.42
2022-11-12T09:45:22.684Z,13.90
2022-11-12T09:47:54.241Z,13.88
2022-11-12T09:51:00.209Z,15.98
2022-11-12T09:53:41.551Z,14.07
2022-11-12T09:56:12.839Z,14.07
2022-11-12T09:58:39.229Z,11.90
2022-11-12T10:01:22.576Z,14.60
2022-11-12T10:04:06.334Z,13.07
2022-11-12T10:06:41.781Z,14.27
2022-11-12T10:09:16.668Z,15.77
2022-11-12T10:12:15.877Z,13.45
2022-11-12T10:15:23.961Z,12.15
2022-11-12T10:18:01.479Z,11.30
2022-11-12T10:20:48.804Z,13.68
2022-11-12T10:23:21.222Z,10.73
2022-11-12T10:25:49.469Z,9.80
2022-11-12T10:28:25.568Z,12.15
2022-11-12T10:30:55.702Z,15.18
2022-11-12T10:33:22.075Z,13.90
2022-11-12T10:35:48.714Z,12.05
2022-11-12T10:38:18.848Z,11.40
2022-11-12T10:40:45.245Z,10.73
2022-11-12T10:43:17.585Z,11.65
2022-11-12T10:45:45.393Z,9.25
2022-11-12T10:48:28.766Z,9.82
2022-11-12T10:50:55.609Z,10.32
2022-11-12T10:53:48.379Z,11.00
2022-11-12T10:56:29.684Z,10.27
2022-11-12T10:59:11.252Z,10.38
2022-11-12T11:01:41.619Z,8.45
2022-11-12T11:04:28.011Z,13.30
2022-11-12T11:06:59.100Z,14.32
2022-11-12T11:09:26.712Z,11.93
2022-11-12T11:11:54.045Z,12.93
2022-11-12T11:14:23.482Z,13.93
2022-11-12T11:16:51.354Z,12.00
2022-11-12T11:19:17.984Z,10.57
2022-11-12T11:21:55.034Z,11.73
2022-11-12T11:24:30.461Z,10.30
2022-11-12T11:27:34.302Z,9.88
2022-11-12T11:30:19.698Z,9.45
2022-11-12T11:33:00.938Z,10.85
2022-11-12T11:35:31.208Z,8.45
2022-11-12T11:38:35.745Z,7.95
2022-11-12T11:41:11.241Z,7.30
2022-11-12T11:43:48.144Z,8.30
2022-11-12T11:46:22.032Z,7.32
2022-11-12T11:48:59.181Z,10.00
2022-11-12T11:51:37.447Z,11.40
2022-11-12T11:54:28.559Z,9.63
2022-11-12T11:56:58.778Z,9.68
2022-11-12T11:59:39.018Z,12.88
2022-11-12T12:02:14.368Z,6.82
2022-11-12T12:04:52.024Z,9.20
2022-11-12T12:07:24.253Z,8.85
2022-11-12T12:10:14.215Z,7.03
2022-11-12T12:13:00.967Z,8.07
2022-11-12T12:15:45.769Z,9.07
2022-11-12T12:18:12.031Z,7.68
2022-11-12T12:21:09.463Z,6.40
2022-11-12T12:24:03.560Z,6.57
2022-11-12T12:26:37.724Z,7.93
2022-11-12T12:29:45.483Z,6.82
2022-11-12T12:32:24.004Z,6.57
2022-11-12T12:35:21.636Z,6.10
2022-11-12T12:38:26.069Z,6.65
2022-11-12T12:41:01.796Z,8.45
2022-11-12T12:43:43.518Z,7.90
2022-11-12T12:46:13.202Z,9.50
2022-11-12T12:51:09.712Z,11.00
2022-11-12T12:53:36.467Z,10.18
2022-11-12T12:56:29.034Z,9.88
2022-11-12T12:58:55.456Z,9.15
2022-11-12T13:01:22.060Z,7.68
2022-11-12T13:03:54.487Z,14.38
2022-11-12T13:06:23.924Z,8.90
2022-11-12T13:09:09.154Z,7.75
2022-11-12T13:12:00.259Z,8.38
2022-11-12T13:14:35.483Z,7.55
2022-11-12T13:17:11.806Z,8.82
2022-11-12T13:20:08.059Z,9.35
2022-11-12T13:22:49.981Z,10.48
2022-11-12T13:25:19.228Z,11.30
2022-11-12T13:27:45.550Z,8.68
2022-11-12T13:30:18.015Z,8.88
2022-11-12T13:32:54.808Z,10.40
2022-11-12T13:35:34.965Z,8.60
2022-11-12T13:38:15.650Z,8.70
2022-11-12T13:40:58.450Z,9.20
2022-11-12T13:43:31.587Z,10.18
2022-11-12T13:46:07.102Z,10.50
2022-11-12T13:48:35.900Z,8.90
2022-11-12T13:51:04.705Z,8.25
2022-11-12T13:53:32.242Z,8.60
2022-11-12T13:55:59.702Z,8.82
2022-11-12T13:58:32.395Z,9.90
2022-11-12T14:01:01.021Z,7.90
2022-11-12T14:03:33.189Z,8.20
2022-11-12T14:06:06.123Z,10.32
2022-11-12T14:08:45.893Z,8.98
2022-11-12T14:11:57.040Z,10.23
2022-11-12T14:14:39.765Z,9.90
2022-11-12T14:17:24.938Z,13.70
2022-11-12T14:20:13.685Z,11.93
2022-11-12T14:22:42.015Z,11.82
2022-11-12T14:25:23.856Z,12.43
2022-11-12T14:27:55.214Z,10.60
2022-11-12T14:30:21.893Z,11.27
2022-11-12T14:32:53.882Z,11.30
2022-11-12T14:35:23.255Z,11.55
2022-11-12T14:38:05.107Z,11.18
2022-11-12T14:40:34.136Z,15.63
2022-11-12T14:43:00.516Z,11.38
2022-11-12T14:45:31.204Z,10.98
2022-11-12T14:48:00.877Z,16.83
2022-11-12T14:50:29.516Z,12.88
2022-11-12T14:53:05.006Z,10.65
2022-11-12T14:55:33.826Z,11.73
2022-11-12T14:58:00.827Z,11.70
2022-11-12T15:00:30.144Z,11.63
2022-11-12T15:02:59.870Z,11.93
2022-11-12T15:05:29.268Z,13.82
2022-11-12T15:08:05.546Z,11.85
2022-11-12T15:10:41.941Z,12.02
2022-11-12T15:13:16.318Z,12.02
2022-11-12T15:16:22.571Z,16.27
2022-11-12T15:19:22.028Z,14.68
2022-11-12T15:22:01.161Z,13.35
2022-11-12T15:24:32.473Z,16.10
2022-11-12T15:27:00.854Z,15.73
2022-11-12T15:29:30.379Z,15.93
2022-11-12T15:31:59.665Z,14.30
2022-11-12T15:34:32.152Z,13.85
2022-11-12T15:37:02.036Z,17.77
2022-11-12T15:39:29.306Z,15.63
2022-11-12T15:42:29.170Z,18.48
2022-11-12T15:45:04.483Z,17.88
2022-11-12T15:47:31.047Z,21.80
2022-11-12T15:50:01.341Z,17.02
2022-11-12T15:52:27.940Z,17.75
2022-11-12T15:54:54.550Z,17.67
2022-11-12T15:57:27.122Z,20.67
2022-11-12T16:00:08.692Z,17.73
2022-11-12T16:02:35.362Z,23.52
2022-11-12T16:05:01.892Z,25.73
2022-11-12T16:07:28.268Z,25.17
2022-11-12T16:09:54.721Z,26.15
2022-11-12T16:12:21.134Z,29.00
2022-11-12T16:14:47.619Z,25.17
2022-11-12T16:17:15.634Z,27.48
2022-11-12T16:19:42.184Z,26.23
2022-11-12T16:22:12.583Z,23.35
2022-11-12T16:24:42.629Z,24.52
2022-11-12T16:27:13.943Z,28.33
2022-11-12T16:29:40.513Z,30.83
2022-11-12T16:32:07.251Z,31.38
2022-11-12T16:34:33.614Z,30.85
2022-11-12T16:37:00.004Z,36.10
2022-11-12T16:39:26.419Z,33.42
2022-11-12T16:41:53.573Z,30.95
2022-11-12T16:44:19.949Z,38.05
2022-11-12T16:46:46.310Z,34.95
2022-11-12T16:49:14.077Z,39.13
2022-11-12T16:51:40.685Z,37.00
2022-11-12T16:54:07.378Z,40.83
2022-11-12T16:56:34.422Z,38.97
2022-11-12T16:59:00.782Z,37.17
2022-11-12T17:01:31.835Z,36.35
2022-11-12T17:03:58.735Z,34.67
2022-11-12T17:06:39.413Z,36.03
2022-11-12T17:09:07.860Z,33.78
2022-11-12T17:11:35.071Z,32.15
2022-11-12T17:14:02.339Z,34.95
2022-11-12T17:16:29.006Z,34.70
2022-11-12T17:18:56.803Z,31.13
2022-11-12T17:21:23.476Z,31.67
2022-11-12T17:23:50.269Z,30.95
2022-11-12T17:26:19.407Z,32.58
2022-11-12T17:28:46.394Z,31.58
2022-11-12T17:31:21.219Z,28.45
2022-11-12T17:33:49.783Z,29.90
2022-11-12T17:36:24.189Z,29.15
2022-11-12T17:38:54.787Z,30.05
2022-11-12T17:41:21.172Z,32.72
2022-11-12T17:43:47.740Z,30.13
2022-11-12T17:46:14.796Z,32.13
2022-11-12T17:48:41.337Z,29.00
2022-11-12T17:51:11.150Z,29.73
2022-11-12T17:53:38.168Z,30.33
2022-11-12T17:56:05.589Z,31.15
2022-11-12T17:58:32.379Z,28.05
2022-11-12T18:01:08.256Z,30.45
2022-11-12T18:03:38.752Z,28.70
2022-11-12T18:06:05.203Z,29.52
2022-11-12T18:08:31.632Z,32.38
2022-11-12T18:10:58.021Z,32.30
2022-11-12T18:13:26.734Z,34.60
2022-11-12T18:15:53.441Z,31.58
2022-11-12T18:18:19.842Z,31.23
2022-11-12T18:20:46.209Z,33.65
2022-11-12T18:23:12.595Z,32.03
2022-11-12T18:25:38.984Z,33.08
2022-11-12T18:28:06.649Z,31.15
2022-11-12T18:30:34.190Z,33.92
2022-11-12T18:33:00.761Z,31.23
2022-11-12T18:35:29.830Z,35.13
2022-11-12T18:37:56.532Z,29.77
2022-11-12T18:40:23.739Z,32.13
2022-11-12T18:42:50.103Z,34.25
2022-11-12T18:45:16.665Z,35.25
2022-11-12T18:47:43.039Z,35.10
2022-11-12T18:50:09.923Z,29.80
2022-11-12T18:52:36.644Z,32.50
2022-11-12T18:55:03.883Z,31.50
2022-11-12T18:57:30.255Z,33.28
2022-11-12T18:59:56.659Z,31.50
2022-11-12T19:02:23.038Z,31.13
2022-11-12T19:04:49.402Z,31.70
2022-11-12T19:07:15.805Z,35.67
2022-11-12T19:09:42.180Z,35.67
2022-11-12T19:12:08.597Z,40.65
2022-11-12T19:14:34.957Z,39.58
2022-11-12T19:17:01.316Z,48.70
2022-11-12T19:19:27.765Z,37.47
2022-11-12T19:21:54.230Z,38.95
2022-11-12T19:24:20.648Z,45.55
2022-11-12T19:26:47.014Z,36.10
2022-11-12T19:29:13.667Z,42.65
2022-11-12T19:31:40.807Z,36.50
2022-11-12T19:34:07.209Z,40.05
2022-11-12T19:36:33.614Z,38.90
2022-11-12T19:39:02.363Z,40.25
2022-11-12T19:41:28.840Z,43.80
2022-11-12T19:43:55.767Z,40.35
2022-11-12T19:46:22.147Z,44.60
2022-11-12T19:48:48.801Z,46.13
2022-11-12T19:51:15.164Z,48.75
2022-11-12T19:53:44.537Z,43.22
2022-11-12T19:56:13.470Z,45.08
2022-11-12T19:58:40.377Z,45.25
2022-11-12T20:01:09.037Z,44.30
2022-11-12T20:03:36.429Z,44.42
2022-11-12T20:06:07.726Z,48.30
2022-11-12T20:08:34.451Z,42.15
2022-11-12T20:11:01.188Z,39.50
2022-11-12T20:13:28.092Z,39.15
2022-11-12T20:15:54.652Z,42.72
2022-11-12T20:18:21.421Z,45.15
2022-11-12T20:20:50.870Z,42.83
2022-11-12T20:23:17.362Z,37.80
2022-11-12T20:25:43.776Z,36.30
2022-11-12T20:28:10.751Z,35.95
2022-11-12T20:30:37.664Z,39.78
2022-11-12T20:33:04.116Z,35.75
2022-11-12T20:35:30.677Z,35.92
2022-11-12T20:37:57.061Z,47.25
2022-11-12T20:40:23.429Z,36.20
2022-11-12T20:42:51.811Z,41.70
2022-11-12T20:45:18.176Z,39.55
2022-11-12T20:47:44.539Z,42.03
2022-11-12T20:50:10.925Z,41.83
2022-11-12T20:52:37.314Z,41.47
2022-11-12T20:55:03.852Z,42.03
2022-11-12T20:57:30.230Z,41.83
2022-11-12T20:59:56.590Z,46.13
2022-11-12T21:02:22.962Z,40.13
2022-11-12T21:04:49.438Z,45.67
2022-11-12T21:07:15.880Z,43.35
2022-11-12T21:09:43.052Z,44.17
2022-11-12T21:12:09.403Z,50.65
2022-11-12T21:14:35.776Z,50.20
2022-11-12T21:17:02.158Z,44.05
2022-11-12T21:19:28.527Z,38.97
2022-11-12T21:21:54.894Z,44.28
2022-11-12T21:24:21.257Z,46.17
2022-11-12T21:26:50.921Z,47.60
2022-11-12T21:29:19.088Z,46.28
2022-11-12T21:31:45.608Z,41.42
2022-11-12T21:34:11.986Z,44.50
2022-11-12T21:36:38.449Z,43.38
2022-11-12T21:39:05.125Z,42.13
2022-11-12T21:41:32.080Z,43.95
2022-11-12T21:43:58.859Z,41.22
2022-11-12T21:46:27.572Z,42.88
2022-11-12T21:48:55.513Z,46.50
2022-11-12T21:51:30.792Z,41.00
2022-11-12T21:53:59.411Z,49.72
2022-11-12T21:56:26.705Z,41.85
2022-11-12T21:58:54.274Z,47.42
2022-11-12T22:01:25.038Z,49.47
2022-11-12T22:03:53.102Z,43.30
2022-11-12T22:06:20.590Z,44.03
2022-11-12T22:08:47.104Z,47.63
2022-11-12T22:11:15.370Z,44.63
2022-11-12T22:13:42.507Z,40.17
2022-11-12T22:16:13.276Z,42.92
2022-11-12T22:18:39.936Z,46.78
2022-11-12T22:21:09.505Z,45.28
2022-11-12T22:23:36.068Z,40.80
2022-11-12T22:26:07.572Z,40.88
2022-11-12T22:28:34.401Z,39.65
2022-11-12T22:31:11.829Z,39.80
2022-11-12T22:33:38.604Z,35.20
2022-11-12T22:36:10.293Z,42.38
2022-11-12T22:38:38.704Z,37.60
2022-11-12T22:41:07.430Z,42.97
2022-11-12T22:43:34.122Z,38.92
2022-11-12T22:46:07.162Z,46.15
2022-11-12T22:48:34.011Z,50.67
2022-11-12T22:51:01.542Z,49.13
2022-11-12T22:53:28.778Z,51.13
2022-11-12T22:55:55.359Z,43.95
2022-11-12T22:58:22.131Z,45.90
2022-11-12T23:00:48.577Z,52.78
2022-11-12T23:03:14.922Z,53.55
2022-11-12T23:05:42.443Z,55.08
2022-11-12T23:08:08.961Z,53.92
2022-11-12T23:10:35.334Z,51.78
2022-11-12T23:13:01.688Z,41.00
2022-11-12T23:15:29.110Z,38.70
2022-11-12T23:17:55.481Z,38.50
2022-11-12T23:20:21.868Z,37.08
2022-11-12T23:22:48.229Z,37.17
2022-11-12T23:25:14.654Z,44.67
2022-11-12T23:27:41.416Z,47.17
2022-11-12T23:30:08.278Z,42.08
2022-11-12T23:32:34.682Z,41.30
2022-11-12T23:35:01.064Z,39.55
2022-11-12T23:37:27.435Z,40.22
2022-11-12T23:39:53.787Z,44.60
2022-11-12T23:42:20.160Z,42.47
2022-11-12T23:44:46.527Z,43.45
2022-11-12T23:47:12.894Z,43.67
2022-11-12T23:49:39.307Z,39.92
2022-11-12T23:52:05.698Z,46.70
2022-11-12T23:54:32.066Z,50.03
2022-11-12T23:56:58.498Z,50.40
2022-11-12T23:59:24.898Z,47.40
